createdAt,value
2017-05-22T00:00:26.116Z,14.61
2017-05-22T00:01:26.082Z,14.69
2017-05-22T00:02:26.057Z,14.69
2017-05-22T00:03:26.045Z,14.79
2017-05-22T00:04:26.016Z,14.78
2017-05-22T00:05:25.692Z,14.63
2017-05-22T00:06:25.971Z,14.61
2017-05-22T00:07:25.643Z,14.48
2017-05-22T00:08:25.930Z,14.54
2017-05-22T00:09:25.908Z,14.59
2017-05-22T00:10:25.897Z,14.6
2017-05-22T00:11:25.870Z,14.52
2017-05-22T00:12:25.845Z,14.57
2017-05-22T00:13:25.527Z,14.53
2017-05-22T00:14:25.812Z,14.42
2017-05-22T00:15:25.836Z,14.42
2017-05-22T00:16:25.770Z,14.45
2017-05-22T00:17:25.742Z,14.38
2017-05-22T00:18:25.716Z,14.46
2017-05-22T00:19:25.712Z,14.59
2017-05-22T00:20:25.681Z,14.56
2017-05-22T00:21:25.657Z,14.54
2017-05-22T00:22:25.638Z,14.59
2017-05-22T00:23:25.611Z,14.54
2017-05-22T00:24:25.594Z,14.61
2017-05-22T00:25:25.570Z,14.59
2017-05-22T00:26:25.552Z,14.61
2017-05-22T00:27:25.536Z,14.54
2017-05-22T00:28:25.517Z,14.52
2017-05-22T00:29:25.493Z,14.52
2017-05-22T00:30:25.468Z,14.45
2017-05-22T00:31:25.455Z,14.46
2017-05-22T00:32:25.430Z,14.38
2017-05-22T00:33:25.408Z,14.38
2017-05-22T00:34:25.383Z,14.35
2017-05-22T00:35:25.059Z,14.35
2017-05-22T00:36:25.341Z,14.26
2017-05-22T00:37:25.322Z,14.34
2017-05-22T00:38:25.313Z,14.29
2017-05-22T00:39:25.293Z,14.26
2017-05-22T00:40:25.256Z,14.26
2017-05-22T00:41:25.241Z,14.19
2017-05-22T00:42:25.214Z,14.26
2017-05-22T00:43:25.199Z,14.11
2017-05-22T00:44:25.181Z,14.2
2017-05-22T00:45:24.851Z,14.21
2017-05-22T00:46:25.129Z,14.27
2017-05-22T00:47:25.107Z,14.27
2017-05-22T00:48:25.088Z,14.26
2017-05-22T00:49:25.068Z,14.27
2017-05-22T00:50:25.044Z,14.31
2017-05-22T00:51:25.021Z,14.29
2017-05-22T00:52:25.304Z,14.27
2017-05-22T00:53:24.981Z,14.42
2017-05-22T00:54:24.959Z,14.45
2017-05-22T00:55:24.697Z,14.45
2017-05-22T00:56:24.918Z,14.44
2017-05-22T00:57:24.596Z,14.42
2017-05-22T00:58:24.893Z,14.36
2017-05-22T00:59:24.862Z,14.42
2017-05-22T01:00:24.841Z,14.41
2017-05-22T01:01:24.807Z,14.38
2017-05-22T01:02:24.498Z,14.45
2017-05-22T01:03:24.470Z,14.46
2017-05-22T01:04:24.757Z,14.46
2017-05-22T01:05:24.433Z,14.46
2017-05-22T01:06:24.769Z,14.39
2017-05-22T01:07:24.738Z,14.45
2017-05-22T01:08:24.675Z,14.31
2017-05-22T01:09:24.645Z,14.27
2017-05-22T01:10:24.626Z,14.27
2017-05-22T01:11:24.612Z,14.36
2017-05-22T01:12:24.590Z,14.42
2017-05-22T01:13:24.568Z,14.26
2017-05-22T01:14:24.544Z,14.34
2017-05-22T01:15:24.522Z,14.31
2017-05-22T01:16:24.503Z,14.29
2017-05-22T01:17:24.481Z,14.27
2017-05-22T01:18:24.464Z,14.24
2017-05-22T01:19:24.134Z,14.21
2017-05-22T01:20:24.423Z,14.21
2017-05-22T01:21:24.397Z,14.26
2017-05-22T01:22:24.429Z,14.24
2017-05-22T01:23:24.353Z,14.23
2017-05-22T01:24:24.329Z,14.3
2017-05-22T01:25:24.313Z,14.3
2017-05-22T01:26:24.294Z,14.2
2017-05-22T01:27:24.323Z,14.27
2017-05-22T01:28:24.250Z,14.2
2017-05-22T01:29:24.229Z,14.21
2017-05-22T01:30:24.208Z,14.23
2017-05-22T01:31:24.184Z,14.11
2017-05-22T01:32:24.165Z,14.16
2017-05-22T01:33:24.131Z,14.16
2017-05-22T01:34:23.820Z,14.2
2017-05-22T01:35:24.149Z,14.21
2017-05-22T01:36:23.774Z,14.12
2017-05-22T01:37:24.054Z,14.12
2017-05-22T01:38:24.036Z,14.06
2017-05-22T01:39:24.017Z,14.16
2017-05-22T01:40:23.996Z,14.01
2017-05-22T01:41:23.978Z,14.01
2017-05-22T01:42:23.961Z,14.06
2017-05-22T01:43:23.995Z,14.08
2017-05-22T01:44:23.905Z,13.96
2017-05-22T01:45:23.894Z,13.98
2017-05-22T01:46:23.875Z,13.93
2017-05-22T01:47:23.903Z,13.96
2017-05-22T01:48:23.826Z,13.91
2017-05-22T01:49:23.806Z,13.8
2017-05-22T01:50:23.783Z,13.88
2017-05-22T01:51:23.765Z,13.86
2017-05-22T01:52:23.739Z,13.84
2017-05-22T01:53:23.768Z,13.84
2017-05-22T01:54:23.702Z,13.81
2017-05-22T01:55:23.674Z,13.86
2017-05-22T01:56:23.651Z,13.72
2017-05-22T01:57:23.644Z,13.79
2017-05-22T01:58:23.609Z,13.8
2017-05-22T01:59:23.602Z,13.8
2017-05-22T02:00:23.581Z,13.69
2017-05-22T02:01:23.553Z,13.73
2017-05-22T02:02:23.528Z,13.73
2017-05-22T02:03:23.510Z,13.72
2017-05-22T02:04:23.489Z,13.61
2017-05-22T02:05:23.465Z,13.59
2017-05-22T02:06:23.439Z,13.66
2017-05-22T02:07:23.424Z,13.66
2017-05-22T02:08:23.453Z,13.65
2017-05-22T02:09:23.478Z,13.62
2017-05-22T02:10:23.362Z,13.62
2017-05-22T02:11:23.335Z,13.53
2017-05-22T02:12:23.324Z,13.47
2017-05-22T02:13:23.302Z,13.51
2017-05-22T02:14:22.967Z,13.48
2017-05-22T02:15:23.258Z,13.51
2017-05-22T02:16:23.230Z,13.46
2017-05-22T02:17:23.208Z,13.46
2017-05-22T02:18:22.894Z,13.5
2017-05-22T02:19:23.174Z,13.46
2017-05-22T02:20:23.149Z,13.5
2017-05-22T02:21:23.174Z,13.44
2017-05-22T02:22:23.106Z,13.46
2017-05-22T02:23:23.081Z,13.43
2017-05-22T02:24:23.059Z,13.38
2017-05-22T02:25:23.035Z,13.41
2017-05-22T02:26:23.019Z,13.36
2017-05-22T02:27:22.995Z,13.29
2017-05-22T02:28:22.985Z,13.24
2017-05-22T02:29:22.954Z,13.22
2017-05-22T02:30:22.626Z,13.27
2017-05-22T02:31:22.909Z,13.25
2017-05-22T02:32:22.896Z,13.19
2017-05-22T02:33:22.865Z,13.16
2017-05-22T02:34:22.848Z,13.22
2017-05-22T02:35:22.834Z,13.13
2017-05-22T02:36:22.807Z,13.17
2017-05-22T02:37:22.837Z,13.19
2017-05-22T02:38:22.467Z,13.17
2017-05-22T02:39:22.739Z,13.12
2017-05-22T02:40:22.716Z,13.25
2017-05-22T02:41:22.704Z,13.07
2017-05-22T02:42:22.668Z,13.22
2017-05-22T02:43:22.654Z,13.14
2017-05-22T02:44:22.692Z,13.12
2017-05-22T02:45:22.616Z,13.13
2017-05-22T02:46:22.595Z,13.16
2017-05-22T02:47:22.576Z,13.04
2017-05-22T02:48:22.556Z,13.09
2017-05-22T02:49:22.584Z,13.1
2017-05-22T02:50:22.501Z,13.04
2017-05-22T02:51:22.487Z,13.1
2017-05-22T02:52:22.515Z,13.06
2017-05-22T02:53:22.441Z,13.04
2017-05-22T02:54:22.425Z,13.04
2017-05-22T02:55:22.396Z,13.03
2017-05-22T02:56:22.375Z,13.04
2017-05-22T02:57:22.354Z,13.01
2017-05-22T02:58:22.335Z,13.07
2017-05-22T02:59:22.315Z,13.06
2017-05-22T03:00:22.342Z,13.01
2017-05-22T03:01:22.267Z,13.04
2017-05-22T03:02:22.249Z,12.99
2017-05-22T03:03:22.233Z,12.95
2017-05-22T03:04:22.204Z,12.96
2017-05-22T03:05:22.178Z,12.98
2017-05-22T03:06:22.159Z,12.96
2017-05-22T03:07:22.143Z,12.98
2017-05-22T03:08:22.129Z,12.94
2017-05-22T03:09:22.107Z,12.87
2017-05-22T03:10:22.072Z,12.89
2017-05-22T03:11:22.064Z,12.92
2017-05-22T03:12:22.029Z,12.92
2017-05-22T03:13:21.714Z,12.87
2017-05-22T03:14:21.997Z,12.88
2017-05-22T03:15:22.268Z,12.87
2017-05-22T03:16:21.946Z,12.89
2017-05-22T03:17:21.931Z,12.92
2017-05-22T03:18:21.899Z,12.87
2017-05-22T03:19:21.883Z,12.88
2017-05-22T03:20:21.565Z,12.91
2017-05-22T03:21:21.837Z,12.87
2017-05-22T03:22:21.865Z,12.92
2017-05-22T03:23:21.812Z,12.87
2017-05-22T03:24:21.793Z,12.91
2017-05-22T03:25:21.815Z,12.91
2017-05-22T03:26:21.743Z,12.88
2017-05-22T03:27:22.021Z,12.92
2017-05-22T03:28:21.687Z,12.74
2017-05-22T03:29:21.664Z,12.77
2017-05-22T03:30:21.896Z,12.74
2017-05-22T03:31:21.342Z,12.76
2017-05-22T03:32:21.609Z,12.77
2017-05-22T03:33:21.592Z,12.71
2017-05-22T03:34:21.566Z,12.79
2017-05-22T03:35:21.538Z,12.74
2017-05-22T03:36:21.518Z,12.74
2017-05-22T03:37:21.502Z,12.69
2017-05-22T03:38:21.474Z,12.7
2017-05-22T03:39:21.464Z,12.7
2017-05-22T03:40:21.429Z,12.67
2017-05-22T03:41:21.106Z,12.66
2017-05-22T03:42:21.389Z,12.67
2017-05-22T03:43:21.364Z,12.7
2017-05-22T03:44:21.345Z,12.61
2017-05-22T03:45:21.323Z,12.55
2017-05-22T03:46:21.309Z,12.54
2017-05-22T03:47:21.278Z,12.54
2017-05-22T03:48:21.252Z,12.52
2017-05-22T03:49:21.235Z,12.55
2017-05-22T03:50:21.214Z,12.51
2017-05-22T03:51:21.192Z,12.58
2017-05-22T03:52:21.180Z,12.59
2017-05-22T03:53:20.840Z,12.62
2017-05-22T03:54:21.130Z,12.66
2017-05-22T03:55:20.805Z,12.69
2017-05-22T03:56:21.083Z,12.62
2017-05-22T03:57:21.061Z,12.61
2017-05-22T03:58:21.093Z,12.7
2017-05-22T03:59:21.022Z,12.59
2017-05-22T04:00:20.995Z,12.59
2017-05-22T04:01:20.977Z,12.59
2017-05-22T04:02:20.952Z,12.61
2017-05-22T04:03:20.937Z,12.61
2017-05-22T04:04:20.908Z,12.66
2017-05-22T04:05:20.887Z,12.69
2017-05-22T04:06:20.871Z,12.69
2017-05-22T04:07:20.848Z,12.73
2017-05-22T04:08:20.823Z,12.81
2017-05-22T04:09:20.878Z,12.85
2017-05-22T04:10:20.784Z,12.88
2017-05-22T04:11:20.762Z,12.85
2017-05-22T04:12:20.742Z,13.03
2017-05-22T04:13:20.769Z,13.06
2017-05-22T04:14:20.703Z,13.07
2017-05-22T04:15:20.684Z,13.14
2017-05-22T04:16:20.355Z,13.12
2017-05-22T04:17:20.636Z,13.13
2017-05-22T04:18:20.611Z,13.14
2017-05-22T04:19:20.597Z,13.13
2017-05-22T04:20:20.269Z,13.07
2017-05-22T04:21:20.542Z,13.1
2017-05-22T04:22:20.529Z,13.22
2017-05-22T04:23:20.499Z,13.31
2017-05-22T04:24:20.486Z,13.31
2017-05-22T04:25:20.464Z,13.29
2017-05-22T04:26:20.442Z,13.36
2017-05-22T04:27:20.420Z,13.36
2017-05-22T04:28:20.400Z,13.43
2017-05-22T04:29:20.380Z,13.47
2017-05-22T04:30:20.356Z,13.63
2017-05-22T04:31:20.337Z,13.59
2017-05-22T04:32:20.316Z,13.68
2017-05-22T04:33:20.297Z,13.75
2017-05-22T04:34:20.282Z,13.9
2017-05-22T04:35:20.252Z,13.93
2017-05-22T04:36:20.236Z,13.99
2017-05-22T04:37:19.906Z,13.99
2017-05-22T04:38:20.189Z,14.11
2017-05-22T04:39:20.226Z,14.21
2017-05-22T04:40:20.146Z,14.24
2017-05-22T04:41:20.136Z,14.16
2017-05-22T04:42:20.106Z,14.26
2017-05-22T04:43:20.083Z,14.42
2017-05-22T04:44:20.070Z,14.49
2017-05-22T04:45:20.036Z,14.78
2017-05-22T04:46:20.015Z,14.85
2017-05-22T04:47:20.009Z,14.91
2017-05-22T04:48:19.682Z,15.01
2017-05-22T04:49:19.960Z,14.98
2017-05-22T04:50:19.938Z,15.19
2017-05-22T04:51:19.917Z,15.2
2017-05-22T04:52:19.909Z,15.18
2017-05-22T04:53:19.883Z,15.19
2017-05-22T04:54:19.568Z,15.27
2017-05-22T04:55:19.847Z,15.33
2017-05-22T04:56:19.821Z,15.34
2017-05-22T04:57:19.799Z,15.27
2017-05-22T04:58:19.786Z,15.34
2017-05-22T04:59:19.760Z,15.44
2017-05-22T05:00:19.744Z,15.66
2017-05-22T05:01:19.416Z,15.76
2017-05-22T05:02:19.699Z,15.89
2017-05-22T05:03:19.738Z,15.89
2017-05-22T05:04:19.663Z,15.95
2017-05-22T05:05:19.336Z,16.1
2017-05-22T05:06:19.626Z,16.36
2017-05-22T05:07:19.601Z,16.57
2017-05-22T05:08:19.582Z,16.67
2017-05-22T05:09:19.620Z,16.88
2017-05-22T05:10:19.552Z,17.07
2017-05-22T05:11:19.530Z,17.38
2017-05-22T05:12:19.205Z,17.53
2017-05-22T05:13:19.515Z,17.63
2017-05-22T05:14:19.473Z,17.71
2017-05-22T05:15:19.447Z,17.79
2017-05-22T05:16:19.451Z,17.94
2017-05-22T05:17:19.422Z,17.89
2017-05-22T05:18:19.411Z,18.1
2017-05-22T05:19:19.380Z,18.09
2017-05-22T05:20:19.363Z,18.17
2017-05-22T05:21:19.042Z,18.28
2017-05-22T05:22:19.019Z,18.49
2017-05-22T05:23:19.310Z,18.53
2017-05-22T05:24:19.283Z,18.57
2017-05-22T05:25:19.271Z,18.66
2017-05-22T05:26:19.302Z,18.68
2017-05-22T05:27:19.247Z,18.64
2017-05-22T05:28:19.216Z,18.62
2017-05-22T05:29:19.206Z,18.59
2017-05-22T05:30:19.199Z,18.41
2017-05-22T05:31:19.171Z,18.44
2017-05-22T05:32:19.201Z,18.51
2017-05-22T05:33:19.184Z,18.65
2017-05-22T05:34:19.120Z,18.68
2017-05-22T05:35:19.098Z,18.71
2017-05-22T05:36:19.083Z,18.9
2017-05-22T05:37:19.064Z,19.17
2017-05-22T05:38:19.052Z,19.4
2017-05-22T05:39:19.030Z,19.61
2017-05-22T05:40:19.019Z,19.6
2017-05-22T05:41:19.000Z,19.78
2017-05-22T05:42:18.975Z,19.83
2017-05-22T05:43:18.968Z,19.98
2017-05-22T05:44:18.949Z,20.2
2017-05-22T05:45:18.981Z,20.51
2017-05-22T05:46:18.914Z,20.72
2017-05-22T05:47:18.898Z,20.69
2017-05-22T05:48:18.888Z,20.63
2017-05-22T05:49:18.869Z,20.75
2017-05-22T05:50:19.067Z,20.78
2017-05-22T05:51:18.844Z,20.83
2017-05-22T05:52:18.826Z,20.87
2017-05-22T05:53:18.802Z,20.91
2017-05-22T05:54:18.840Z,21.13
2017-05-22T05:55:18.771Z,21.28
2017-05-22T05:56:18.838Z,21.28
2017-05-22T05:57:18.733Z,21.24
2017-05-22T05:58:18.731Z,21.24
2017-05-22T05:59:18.413Z,21.4
2017-05-22T06:00:18.745Z,21.51
2017-05-22T06:01:18.684Z,21.37
2017-05-22T06:02:18.684Z,21.56
2017-05-22T06:03:18.701Z,21.58
2017-05-22T06:04:18.636Z,21.77
2017-05-22T06:05:18.622Z,21.89
2017-05-22T06:06:18.613Z,21.98
2017-05-22T06:07:18.594Z,22.15
2017-05-22T06:08:18.279Z,22.27
2017-05-22T06:09:18.568Z,22.44
2017-05-22T06:10:18.557Z,22.49
2017-05-22T06:11:18.542Z,22.56
2017-05-22T06:12:18.221Z,22.6
2017-05-22T06:13:18.527Z,22.6
2017-05-22T06:14:18.500Z,22.61
2017-05-22T06:15:18.491Z,22.39
2017-05-22T06:16:18.476Z,22.38
2017-05-22T06:17:18.512Z,22.2
2017-05-22T06:18:18.445Z,22.31
2017-05-22T06:19:18.428Z,22.19
2017-05-22T06:20:18.417Z,21.91
2017-05-22T06:21:18.407Z,21.94
2017-05-22T06:22:18.387Z,22.11
2017-05-22T06:23:18.380Z,22.04
2017-05-22T06:24:18.374Z,22.19
2017-05-22T06:25:18.380Z,22.39
2017-05-22T06:26:18.333Z,22.48
2017-05-22T06:27:18.327Z,22.75
2017-05-22T06:28:18.309Z,22.97
2017-05-22T06:29:17.998Z,23.09
2017-05-22T06:30:18.284Z,23.12
2017-05-22T06:31:18.268Z,23.37
2017-05-22T06:32:18.252Z,23.59
2017-05-22T06:33:18.244Z,23.68
2017-05-22T06:34:18.239Z,23.79
2017-05-22T06:35:18.228Z,24
2017-05-22T06:36:18.200Z,24.12
2017-05-22T06:37:18.199Z,24.19
2017-05-22T06:38:18.181Z,24.12
2017-05-22T06:39:18.178Z,24.08
2017-05-22T06:40:18.149Z,24.06
2017-05-22T06:41:18.141Z,24.12
2017-05-22T06:42:18.189Z,24.27
2017-05-22T06:43:18.121Z,24.63
2017-05-22T06:44:18.120Z,24.77
2017-05-22T06:45:17.790Z,24.74
2017-05-22T06:46:17.786Z,24.71
2017-05-22T06:47:17.790Z,24.55
2017-05-22T06:48:18.071Z,24.26
2017-05-22T06:49:18.052Z,24.44
2017-05-22T06:50:17.986Z,24.44
2017-05-22T06:51:18.021Z,24.46
2017-05-22T06:52:18.019Z,24.79
2017-05-22T06:53:18.003Z,24.9
2017-05-22T06:54:18.006Z,25.07
2017-05-22T06:55:17.980Z,25.3
2017-05-22T06:56:17.974Z,25.49
2017-05-22T06:57:17.968Z,25.44
2017-05-22T06:58:17.951Z,25.41
2017-05-22T06:59:17.942Z,25.2
2017-05-22T07:00:17.932Z,24.99
2017-05-22T07:01:17.969Z,25.17
2017-05-22T07:02:17.919Z,25.45
2017-05-22T07:03:17.903Z,25.66
2017-05-22T07:04:17.581Z,25.74
2017-05-22T07:05:17.879Z,25.72
2017-05-22T07:06:17.875Z,25.56
2017-05-22T07:07:17.855Z,25.57
2017-05-22T07:08:17.898Z,25.35
2017-05-22T07:09:17.841Z,25.22
2017-05-22T07:10:17.828Z,25.24
2017-05-22T07:11:17.509Z,25.17
2017-05-22T07:12:17.800Z,25.24
2017-05-22T07:13:17.801Z,25.19
2017-05-22T07:14:17.791Z,25.31
2017-05-22T07:15:17.781Z,25.54
2017-05-22T07:16:17.769Z,25.83
2017-05-22T07:17:17.754Z,26.06
2017-05-22T07:18:17.762Z,26.08
2017-05-22T07:19:17.741Z,26.03
2017-05-22T07:20:17.720Z,26
2017-05-22T07:21:17.766Z,26.03
2017-05-22T07:22:17.758Z,26
2017-05-22T07:23:17.692Z,26.04
2017-05-22T07:24:17.701Z,26.16
2017-05-22T07:25:17.382Z,26.42
2017-05-22T07:26:17.721Z,26.39
2017-05-22T07:27:17.652Z,26.56
2017-05-22T07:28:17.642Z,26.97
2017-05-22T07:29:17.644Z,27.21
2017-05-22T07:30:17.626Z,27.25
2017-05-22T07:31:17.316Z,27.55
2017-05-22T07:32:17.624Z,27.71
2017-05-22T07:33:17.600Z,27.74
2017-05-22T07:34:17.611Z,27.77
2017-05-22T07:35:17.588Z,27.9
2017-05-22T07:36:17.580Z,28.03
2017-05-22T07:37:17.567Z,28.09
2017-05-22T07:38:17.562Z,28.24
2017-05-22T07:39:17.550Z,28.06
2017-05-22T07:40:17.242Z,28.2
2017-05-22T07:41:17.532Z,28.39
2017-05-22T07:42:17.528Z,28.55
2017-05-22T07:43:17.517Z,28.43
2017-05-22T07:44:17.509Z,28.57
2017-05-22T07:45:17.501Z,28.8
2017-05-22T07:46:17.499Z,28.95
2017-05-22T07:47:17.485Z,28.85
2017-05-22T07:48:17.481Z,28.92
2017-05-22T07:49:17.476Z,29.29
2017-05-22T07:50:17.469Z,29.49
2017-05-22T07:51:17.460Z,29.55
2017-05-22T07:52:17.449Z,29.66
2017-05-22T07:53:17.454Z,29.74
2017-05-22T07:54:17.441Z,30
2017-05-22T07:55:17.447Z,30.08
2017-05-22T07:56:17.432Z,30.18
2017-05-22T07:57:17.421Z,29.92
2017-05-22T07:58:17.421Z,29.74
2017-05-22T07:59:17.414Z,29.18
2017-05-22T08:00:17.407Z,28.83
2017-05-22T08:01:17.091Z,28.69
2017-05-22T08:02:17.398Z,28.85
2017-05-22T08:03:17.394Z,29.11
2017-05-22T08:04:17.381Z,29.15
2017-05-22T08:05:17.365Z,29.17
2017-05-22T08:06:17.370Z,29.08
2017-05-22T08:07:17.365Z,29.12
2017-05-22T08:08:17.355Z,29.02
2017-05-22T08:09:17.350Z,29.14
2017-05-22T08:10:17.347Z,29.2
2017-05-22T08:11:17.352Z,29.21
2017-05-22T08:12:17.336Z,29.14
2017-05-22T08:13:17.030Z,29.2
2017-05-22T08:14:17.017Z,29.14
2017-05-22T08:15:17.317Z,28.76
2017-05-22T08:16:17.000Z,28.36
2017-05-22T08:17:17.299Z,27.98
2017-05-22T08:18:17.294Z,27.87
2017-05-22T08:19:17.295Z,27.88
2017-05-22T08:20:16.982Z,28.08
2017-05-22T08:21:17.297Z,28.39
2017-05-22T08:22:17.273Z,28.94
2017-05-22T08:23:17.272Z,29.17
2017-05-22T08:24:17.262Z,29.36
2017-05-22T08:25:17.265Z,29.49
2017-05-22T08:26:17.251Z,29.63
2017-05-22T08:27:17.252Z,29.79
2017-05-22T08:28:17.251Z,29.81
2017-05-22T08:29:17.229Z,29.82
2017-05-22T08:30:17.221Z,29.97
2017-05-22T08:31:17.265Z,29.94
2017-05-22T08:32:17.261Z,30.01
2017-05-22T08:33:17.217Z,30.01
2017-05-22T08:34:17.198Z,29.84
2017-05-22T08:35:17.199Z,29.74
2017-05-22T08:36:17.186Z,29.7
2017-05-22T08:37:16.884Z,29.71
2017-05-22T08:38:17.177Z,29.79
2017-05-22T08:39:17.173Z,29.66
2017-05-22T08:40:17.157Z,29.49
2017-05-22T08:41:17.158Z,29.45
2017-05-22T08:42:17.159Z,29.64
2017-05-22T08:43:17.394Z,29.78
2017-05-22T08:44:17.143Z,29.89
2017-05-22T08:45:17.140Z,29.91
2017-05-22T08:46:17.130Z,29.52
2017-05-22T08:47:17.131Z,28.85
2017-05-22T08:48:17.124Z,28.35
2017-05-22T08:49:17.121Z,28.38
2017-05-22T08:50:16.808Z,28.54
2017-05-22T08:51:17.108Z,28.98
2017-05-22T08:52:17.117Z,29.2
2017-05-22T08:53:17.102Z,29.26
2017-05-22T08:54:17.089Z,29.08
2017-05-22T08:55:16.783Z,29.17
2017-05-22T08:56:16.773Z,29.44
2017-05-22T08:57:17.114Z,29.6
2017-05-22T08:58:17.083Z,29.81
2017-05-22T08:59:17.061Z,29.95
2017-05-22T09:00:17.055Z,29.84
2017-05-22T09:01:17.056Z,29.73
2017-05-22T09:02:17.049Z,29.36
2017-05-22T09:03:17.044Z,29.03
2017-05-22T09:04:17.038Z,28.76
2017-05-22T09:05:17.029Z,28.55
2017-05-22T09:06:16.409Z,28.54
2017-05-22T09:07:17.059Z,28.55
2017-05-22T09:08:17.019Z,28.82
2017-05-22T09:09:17.005Z,28.69
2017-05-22T09:10:16.988Z,28.28
2017-05-22T09:11:16.987Z,27.91
2017-05-22T09:12:16.980Z,27.86
2017-05-22T09:13:17.027Z,27.81
2017-05-22T09:14:16.969Z,28.02
2017-05-22T09:15:16.961Z,28.15
2017-05-22T09:16:16.958Z,28.2
2017-05-22T09:17:16.946Z,28.18
2017-05-22T09:18:16.950Z,28.35
2017-05-22T09:19:16.940Z,28.61
2017-05-22T09:20:16.939Z,28.8
2017-05-22T09:21:16.923Z,28.46
2017-05-22T09:22:16.929Z,28.18
2017-05-22T09:23:16.938Z,28.05
2017-05-22T09:24:16.601Z,28.13
2017-05-22T09:25:16.899Z,27.9
2017-05-22T09:26:16.891Z,27.59
2017-05-22T09:27:16.894Z,27.24
2017-05-22T09:28:16.878Z,27.2
2017-05-22T09:29:16.920Z,27.12
2017-05-22T09:30:16.574Z,27.25
2017-05-22T09:31:16.861Z,27.61
2017-05-22T09:32:16.860Z,27.88
2017-05-22T09:33:16.836Z,28.03
2017-05-22T09:34:16.834Z,27.76
2017-05-22T09:35:16.820Z,27.86
2017-05-22T09:36:16.829Z,27.81
2017-05-22T09:37:16.818Z,27.99
2017-05-22T09:38:16.812Z,28.39
2017-05-22T09:39:16.798Z,28.28
2017-05-22T09:40:16.498Z,28.21
2017-05-22T09:41:16.779Z,27.9
2017-05-22T09:42:16.779Z,27.45
2017-05-22T09:43:16.776Z,27.2
2017-05-22T09:44:16.763Z,26.71
2017-05-22T09:45:16.762Z,26.66
2017-05-22T09:46:16.742Z,26.56
2017-05-22T09:47:16.763Z,26.49
2017-05-22T09:48:16.731Z,26.64
2017-05-22T09:49:16.729Z,26.78
2017-05-22T09:50:16.721Z,26.87
2017-05-22T09:51:16.711Z,26.86
2017-05-22T09:52:16.700Z,27.03
2017-05-22T09:53:16.399Z,27.21
2017-05-22T09:54:16.683Z,27.35
2017-05-22T09:55:16.679Z,27.68
2017-05-22T09:56:16.667Z,27.72
2017-05-22T09:57:16.661Z,27.78
2017-05-22T09:58:16.659Z,27.72
2017-05-22T09:59:16.651Z,27.99
2017-05-22T10:00:16.689Z,28.15
2017-05-22T10:01:21.291Z,27.96
2017-05-22T10:02:16.625Z,27.69
2017-05-22T10:03:16.620Z,27.27
2017-05-22T10:04:16.615Z,27.06
2017-05-22T10:05:16.302Z,26.91
2017-05-22T10:06:16.706Z,26.72
2017-05-22T10:07:16.595Z,26.86
2017-05-22T10:08:16.576Z,26.91
2017-05-22T10:09:16.587Z,26.84
2017-05-22T10:10:16.563Z,26.97
2017-05-22T10:11:16.558Z,27.16
2017-05-22T10:12:16.551Z,27.13
2017-05-22T10:13:16.550Z,27.08
2017-05-22T10:14:16.540Z,26.93
2017-05-22T10:15:16.521Z,26.81
2017-05-22T10:16:16.520Z,26.66
2017-05-22T10:17:16.505Z,26.54
2017-05-22T10:18:16.511Z,26.71
2017-05-22T10:19:16.500Z,27.02
2017-05-22T10:20:16.485Z,27.13
2017-05-22T10:21:16.526Z,27.2
2017-05-22T10:22:16.468Z,27.13
2017-05-22T10:23:16.160Z,26.93
2017-05-22T10:24:16.454Z,26.81
2017-05-22T10:25:16.159Z,26.79
2017-05-22T10:26:16.445Z,26.94
2017-05-22T10:27:16.429Z,27.2
2017-05-22T10:28:16.432Z,27.48
2017-05-22T10:29:16.419Z,27.48
2017-05-22T10:30:16.668Z,27.46
2017-05-22T10:31:16.395Z,27.28
2017-05-22T10:32:16.092Z,27.28
2017-05-22T10:33:16.398Z,27.18
2017-05-22T10:34:16.378Z,27.23
2017-05-22T10:35:16.374Z,27.34
2017-05-22T10:36:16.121Z,27.42
2017-05-22T10:37:16.353Z,27.46
2017-05-22T10:38:16.344Z,27.49
2017-05-22T10:39:16.395Z,27.53
2017-05-22T10:40:16.332Z,27.46
2017-05-22T10:41:16.372Z,27.5
2017-05-22T10:42:16.311Z,27.55
2017-05-22T10:43:16.317Z,27.28
2017-05-22T10:44:16.298Z,27.12
2017-05-22T10:45:16.291Z,27.35
2017-05-22T10:46:16.284Z,27.49
2017-05-22T10:47:16.288Z,27.5
2017-05-22T10:48:16.275Z,27.45
2017-05-22T10:49:16.260Z,27.2
2017-05-22T10:50:16.257Z,27.02
2017-05-22T10:51:16.247Z,26.96
2017-05-22T10:52:16.246Z,27.01
2017-05-22T10:53:16.237Z,27.16
2017-05-22T10:54:16.224Z,27.25
2017-05-22T10:55:16.213Z,27.42
2017-05-22T10:56:16.213Z,27.38
2017-05-22T10:57:16.211Z,27.34
2017-05-22T10:58:16.267Z,27.42
2017-05-22T10:59:16.256Z,27.34
2017-05-22T11:00:15.881Z,27.39
2017-05-22T11:01:16.184Z,27.45
2017-05-22T11:02:16.162Z,27.43
2017-05-22T11:03:16.158Z,27.23
2017-05-22T11:04:16.154Z,27.28
2017-05-22T11:05:16.153Z,27.18
2017-05-22T11:06:16.138Z,26.72
2017-05-22T11:07:15.828Z,26.42
2017-05-22T11:08:16.116Z,26
2017-05-22T11:09:16.118Z,25.86
2017-05-22T11:10:16.105Z,25.53
2017-05-22T11:11:16.099Z,25.27
2017-05-22T11:12:16.089Z,24.98
2017-05-22T11:13:16.081Z,24.8
2017-05-22T11:14:16.066Z,24.59
2017-05-22T11:15:16.055Z,24.29
2017-05-22T11:16:16.055Z,24.05
2017-05-22T11:17:16.034Z,23.68
2017-05-22T11:18:16.115Z,23.53
2017-05-22T11:19:16.018Z,23.44
2017-05-22T11:20:15.689Z,23.42
2017-05-22T11:21:15.997Z,23.29
2017-05-22T11:22:15.974Z,23.14
2017-05-22T11:23:15.966Z,23.15
2017-05-22T11:24:15.945Z,23.04
2017-05-22T11:25:15.925Z,23.14
2017-05-22T11:26:15.621Z,22.99
2017-05-22T11:27:15.896Z,23
2017-05-22T11:28:15.894Z,23.04
2017-05-22T11:29:15.877Z,22.84
2017-05-22T11:30:15.850Z,22.69
2017-05-22T11:31:15.839Z,22.44
2017-05-22T11:32:15.822Z,22.45
2017-05-22T11:33:15.809Z,22.3
2017-05-22T11:34:15.796Z,22.33
2017-05-22T11:35:15.780Z,22.52
2017-05-22T11:36:15.766Z,22.45
2017-05-22T11:37:15.767Z,22.49
2017-05-22T11:38:15.727Z,22.56
2017-05-22T11:39:15.711Z,22.48
2017-05-22T11:40:15.704Z,22.54
2017-05-22T11:41:15.074Z,22.6
2017-05-22T11:42:15.657Z,22.74
2017-05-22T11:43:15.638Z,22.78
2017-05-22T11:44:15.636Z,22.78
2017-05-22T11:45:15.664Z,22.78
2017-05-22T11:46:15.597Z,22.75
2017-05-22T11:47:15.578Z,22.61
2017-05-22T11:48:15.565Z,22.64
2017-05-22T11:49:15.565Z,22.69
2017-05-22T11:50:15.529Z,22.78
2017-05-22T11:51:15.513Z,22.79
2017-05-22T11:52:15.490Z,22.82
2017-05-22T11:53:15.478Z,22.81
2017-05-22T11:54:15.465Z,22.75
2017-05-22T11:55:15.450Z,22.79
2017-05-22T11:56:15.496Z,22.81
2017-05-22T11:57:15.109Z,22.78
2017-05-22T11:58:15.095Z,22.76
2017-05-22T11:59:15.070Z,22.69
2017-05-22T12:00:15.369Z,22.7
2017-05-22T12:01:15.346Z,22.64
2017-05-22T12:02:15.323Z,22.49
2017-05-22T12:03:15.312Z,22.56
2017-05-22T12:04:15.296Z,22.51
2017-05-22T12:05:15.275Z,22.59
2017-05-22T12:06:15.251Z,22.59
2017-05-22T12:07:15.441Z,22.49
2017-05-22T12:08:15.218Z,22.52
2017-05-22T12:09:15.262Z,22.61
2017-05-22T12:10:15.190Z,22.61
2017-05-22T12:11:15.218Z,22.63
2017-05-22T12:12:14.855Z,22.66
2017-05-22T12:13:15.140Z,22.61
2017-05-22T12:14:15.114Z,22.61
2017-05-22T12:15:14.799Z,22.64
2017-05-22T12:16:15.080Z,22.64
2017-05-22T12:17:15.065Z,22.69
2017-05-22T12:18:15.052Z,22.69
2017-05-22T12:19:15.040Z,22.75
2017-05-22T12:20:15.027Z,22.81
2017-05-22T12:21:15.002Z,22.85
2017-05-22T12:22:14.994Z,22.81
2017-05-22T12:23:14.964Z,22.72
2017-05-22T12:24:14.953Z,22.79
2017-05-22T12:25:14.929Z,22.81
2017-05-22T12:26:14.908Z,22.81
2017-05-22T12:27:14.897Z,22.84
2017-05-22T12:28:14.578Z,22.79
2017-05-22T12:29:14.859Z,22.97
2017-05-22T12:30:14.843Z,22.88
2017-05-22T12:31:14.829Z,22.85
2017-05-22T12:32:14.808Z,22.84
2017-05-22T12:33:14.801Z,22.78
2017-05-22T12:34:14.776Z,22.74
2017-05-22T12:35:14.761Z,22.66
2017-05-22T12:36:14.750Z,22.64
2017-05-22T12:37:14.728Z,22.72
2017-05-22T12:38:14.709Z,22.67
2017-05-22T12:39:14.689Z,22.74
2017-05-22T12:40:14.421Z,22.7
2017-05-22T12:41:14.662Z,22.66
2017-05-22T12:42:14.682Z,22.64
2017-05-22T12:43:14.619Z,22.61
2017-05-22T12:44:14.354Z,22.66
2017-05-22T12:45:14.581Z,22.72
2017-05-22T12:46:14.570Z,22.76
2017-05-22T12:47:14.551Z,22.81
2017-05-22T12:48:14.595Z,22.89
2017-05-22T12:49:14.518Z,22.84
2017-05-22T12:50:14.799Z,22.88
2017-05-22T12:51:14.475Z,22.88
2017-05-22T12:52:14.162Z,22.89
2017-05-22T12:53:14.449Z,22.84
2017-05-22T12:54:14.426Z,22.86
2017-05-22T12:55:14.405Z,22.89